Time;durP1;ratioP1;P1;durP2;ratioP2;P2;SDS_P1;SDS_P2;PMS_P1;PMS_P2;Temp;Humidity;BMP_temperature;BMP_pressure;BME280_temperature;BME280_humidity;BME280_pressure;Samples;Min_cycle;Max_cycle;Signal;HPM_P1;HPM_P2
2024/03/26 00:00:41;;;;;;;13.23;6.80;;;2.50;99.90;;;;;;2033200;29;20314;-69
2024/03/26 00:01:42;;;;;;;11.43;6.10;;;2.50;99.90;;;;;;2025900;29;20321;-69
2024/03/26 00:02:42;;;;;;;8.87;5.27;;;2.50;99.90;;;;;;2016503;29;20265;-69
2024/03/26 00:03:43;;;;;;;7.23;4.33;;;2.50;99.90;;;;;;2030877;29;20651;-69
2024/03/26 00:04:44;;;;;;;7.83;4.10;;;2.50;99.90;;;;;;2038039;29;20317;-69
2024/03/26 00:05:44;;;;;;;7.87;4.00;;;2.50;99.90;;;;;;2032199;29;20230;-69
2024/03/26 00:06:45;;;;;;;8.50;5.03;;;2.50;99.90;;;;;;2030740;29;20393;-69
2024/03/26 00:07:46;;;;;;;10.87;5.50;;;2.60;99.90;;;;;;2034231;29;20270;-69
2024/03/26 00:08:46;;;;;;;11.10;5.30;;;2.60;99.90;;;;;;2033588;29;20666;-69
2024/03/26 00:09:47;;;;;;;9.87;4.47;;;2.60;99.90;;;;;;2032870;29;20246;-69
2024/03/26 00:10:48;;;;;;;8.27;4.67;;;2.60;99.90;;;;;;2031436;29;20338;-69
2024/03/26 00:11:49;;;;;;;7.97;4.73;;;2.60;99.90;;;;;;2032464;29;20233;-68
2024/03/26 00:12:50;;;;;;;8.80;5.07;;;2.70;99.90;;;;;;2023842;29;20232;-69
2024/03/26 00:13:51;;;;;;;10.65;6.50;;;2.70;99.90;;;;;;2023365;29;20721;-69
2024/03/26 00:14:52;;;;;;;11.57;5.97;;;2.70;99.80;;;;;;2031392;29;20231;-69
2024/03/26 00:15:52;;;;;;;10.77;6.07;;;2.70;99.80;;;;;;2028933;29;20224;-69
2024/03/26 00:16:53;;;;;;;8.40;5.30;;;2.70;99.60;;;;;;2020405;29;20700;-69
2024/03/26 00:17:53;;;;;;;11.13;5.93;;;2.70;99.50;;;;;;2021625;29;20243;-69
2024/03/26 00:18:54;;;;;;;9.30;5.53;;;2.60;99.60;;;;;;2028834;29;20234;-69
2024/03/26 00:19:55;;;;;;;9.40;5.50;;;2.60;99.60;;;;;;2024104;29;20230;-69
2024/03/26 00:20:55;;;;;;;8.20;5.10;;;2.70;99.70;;;;;;2024219;29;20248;-69
2024/03/26 00:21:56;;;;;;;9.17;5.63;;;2.70;99.80;;;;;;2032133;29;20219;-69
2024/03/26 00:22:57;;;;;;;8.80;4.90;;;2.70;99.90;;;;;;2031765;29;20228;-69
2024/03/26 00:23:58;;;;;;;10.47;5.47;;;2.60;99.90;;;;;;2031741;29;20248;-69
2024/03/26 00:24:58;;;;;;;8.73;4.30;;;2.60;99.90;;;;;;2031054;29;20239;-69
2024/03/26 00:25:59;;;;;;;8.53;4.90;;;2.60;99.80;;;;;;2029821;29;20285;-69
2024/03/26 00:27:00;;;;;;;6.95;4.22;;;2.50;99.90;;;;;;2029673;29;20714;-69
2024/03/26 00:28:01;;;;;;;7.33;4.57;;;2.50;99.90;;;;;;2032552;29;20247;-69
2024/03/26 00:29:02;;;;;;;7.73;4.20;;;2.50;99.90;;;;;;2031457;29;20719;-69
2024/03/26 00:30:04;;;;;;;5.70;3.80;;;2.60;99.90;;;;;;2028479;29;20204;-69
2024/03/26 00:31:05;;;;;;;5.43;3.78;;;2.60;99.90;;;;;;2034804;29;20668;-69
2024/03/26 00:32:06;;;;;;;7.07;3.23;;;2.60;99.90;;;;;;2037908;29;20201;-69
2024/03/26 00:33:06;;;;;;;6.60;3.70;;;2.60;99.90;;;;;;2037522;29;20197;-69
2024/03/26 00:34:07;;;;;;;5.60;3.33;;;2.70;99.90;;;;;;2037870;29;20294;-70
2024/03/26 00:35:08;;;;;;;6.77;3.00;;;2.70;99.90;;;;;;2035214;29;20215;-69
2024/03/26 00:36:09;;;;;;;6.97;3.40;;;2.70;99.90;;;;;;2032452;29;20277;-69
2024/03/26 00:37:09;;;;;;;5.50;3.13;;;2.70;99.90;;;;;;2033885;29;20183;-69
2024/03/26 00:38:10;;;;;;;7.07;2.97;;;2.60;99.90;;;;;;2031267;29;20214;-69
2024/03/26 00:39:10;;;;;;;6.67;3.30;;;2.60;99.90;;;;;;2030507;29;20251;-69
2024/03/26 00:40:12;;;;;;;5.73;2.87;;;2.70;99.90;;;;;;2030463;29;20685;-69
2024/03/26 00:41:12;;;;;;;3.47;2.35;;;2.70;99.90;;;;;;2031677;29;20189;-69
2024/03/26 00:42:13;;;;;;;4.10;2.60;;;2.70;99.80;;;;;;2031354;29;20198;-69
2024/03/26 00:43:14;;;;;;;4.70;3.07;;;2.60;99.70;;;;;;2022099;29;20196;-69
2024/03/26 00:44:14;;;;;;;5.10;3.10;;;2.70;99.80;;;;;;2018076;29;20215;-69
2024/03/26 00:45:15;;;;;;;4.67;2.47;;;2.80;99.60;;;;;;2017758;29;20516;-69
2024/03/26 00:46:16;;;;;;;5.23;3.20;;;2.80;99.40;;;;;;2025920;29;20238;-69
2024/03/26 00:47:16;;;;;;;4.83;2.80;;;2.80;99.30;;;;;;2032957;29;20179;-69
2024/03/26 00:48:17;;;;;;;4.23;2.63;;;2.80;99.30;;;;;;2024079;29;20280;-69
2024/03/26 00:49:18;;;;;;;5.03;2.90;;;2.80;99.40;;;;;;2024205;29;20187;-69
2024/03/26 00:50:18;;;;;;;6.93;2.67;;;2.80;99.40;;;;;;2023926;29;20218;-69
2024/03/26 00:51:19;;;;;;;4.83;2.73;;;2.80;99.20;;;;;;2022589;29;20219;-69
2024/03/26 00:52:20;;;;;;;5.97;3.13;;;2.80;99.20;;;;;;2031492;29;20602;-69
2024/03/26 00:53:20;;;;;;;4.93;3.13;;;2.80;99.30;;;;;;2023065;29;20305;-69
2024/03/26 00:54:21;;;;;;;4.50;2.67;;;2.90;99.20;;;;;;2025442;29;20243;-69
2024/03/26 00:55:21;;;;;;;4.23;2.80;;;2.90;99.10;;;;;;2033427;29;20238;-69
2024/03/26 00:56:22;;;;;;;5.17;3.07;;;2.90;99.00;;;;;;2033024;29;20296;-69
2024/03/26 00:57:23;;;;;;;4.20;2.80;;;3.00;99.10;;;;;;2024268;29;20282;-69
2024/03/26 00:58:24;;;;;;;5.67;2.90;;;3.00;99.20;;;;;;2023422;29;20248;-69
2024/03/26 00:59:24;;;;;;;4.87;2.83;;;2.90;99.40;;;;;;2014528;29;20246;-69
2024/03/26 01:00:25;;;;;;;2.97;2.63;;;2.90;99.70;;;;;;2022274;29;20232;-69
2024/03/26 01:01:26;;;;;;;4.37;3.00;;;2.80;99.60;;;;;;2037444;29;20247;-70
2024/03/26 01:02:26;;;;;;;6.93;3.73;;;2.80;99.80;;;;;;2029840;29;20235;-68
2024/03/26 01:03:27;;;;;;;5.73;3.17;;;2.80;99.70;;;;;;2031314;29;20278;-69
2024/03/26 01:04:28;;;;;;;5.27;3.00;;;2.80;99.60;;;;;;2035377;29;20728;-69
2024/03/26 01:05:28;;;;;;;5.67;2.90;;;2.90;99.50;;;;;;2027367;29;20259;-69
2024/03/26 01:06:29;;;;;;;4.60;2.40;;;2.90;99.40;;;;;;2018763;29;20244;-69
2024/03/26 01:07:30;;;;;;;4.23;2.47;;;2.90;99.30;;;;;;2018365;29;20237;-70
2024/03/26 01:08:30;;;;;;;4.20;2.60;;;2.90;99.30;;;;;;2025247;29;20708;-69
2024/03/26 01:09:31;;;;;;;3.50;2.27;;;2.90;99.30;;;;;;2024627;29;20254;-69
2024/03/26 01:10:32;;;;;;;4.20;2.60;;;3.00;99.20;;;;;;2024977;29;20309;-69
2024/03/26 01:11:32;;;;;;;4.33;2.80;;;3.00;99.20;;;;;;2036084;29;20241;-69
2024/03/26 01:12:34;;;;;;;6.10;3.00;;;3.10;98.90;;;;;;2036764;29;20723;-69
2024/03/26 01:13:34;;;;;;;4.68;2.92;;;3.10;98.90;;;;;;2035853;29;20227;-69
2024/03/26 01:14:35;;;;;;;4.33;2.90;;;3.20;98.80;;;;;;2026531;29;20218;-68
2024/03/26 01:15:36;;;;;;;6.77;2.63;;;3.20;98.70;;;;;;2026527;29;20223;-69
2024/03/26 01:16:36;;;;;;;5.37;3.30;;;3.20;98.60;;;;;;2034138;29;20305;-69
2024/03/26 01:17:37;;;;;;;5.80;3.27;;;3.20;98.40;;;;;;2034153;29;20604;-69
2024/03/26 01:18:38;;;;;;;6.70;3.20;;;3.20;98.30;;;;;;2033144;29;20362;-70
2024/03/26 01:19:38;;;;;;;4.43;3.10;;;3.20;98.20;;;;;;2032838;29;20233;-69
2024/03/26 01:20:42;;;;;;;5.43;2.70;;;3.20;98.00;;;;;;2035967;29;20242;-69
2024/03/26 01:21:42;;;;;;;4.07;2.55;;;3.30;98.00;;;;;;2031672;29;20270;-69
2024/03/26 01:22:43;;;;;;;5.90;2.93;;;3.20;98.00;;;;;;2031421;29;20865;-68
2024/03/26 01:23:44;;;;;;;3.47;2.77;;;3.20;98.00;;;;;;2034871;29;20277;-69
2024/03/26 01:24:44;;;;;;;5.03;2.87;;;3.20;98.10;;;;;;2034296;29;20237;-69
2024/03/26 01:25:45;;;;;;;4.90;2.37;;;3.20;98.00;;;;;;2034738;29;20223;-69
2024/03/26 01:26:46;;;;;;;3.10;2.00;;;3.20;98.20;;;;;;2034271;29;20227;-69
2024/03/26 01:27:46;;;;;;;3.80;1.87;;;3.10;98.50;;;;;;2025855;29;20301;-68
2024/03/26 01:28:47;;;;;;;3.47;1.97;;;3.10;98.60;;;;;;2014748;29;20283;-69
2024/03/26 01:29:48;;;;;;;4.50;2.40;;;3.00;98.90;;;;;;2027751;29;20223;-69
2024/03/26 01:30:48;;;;;;;3.67;1.90;;;3.00;99.30;;;;;;2035953;29;20217;-69
2024/03/26 01:31:49;;;;;;;4.30;2.90;;;3.00;99.50;;;;;;2035991;29;20223;-69
2024/03/26 01:32:51;;;;;;;3.73;2.27;;;3.00;99.90;;;;;;2026934;29;20714;-69
2024/03/26 01:33:51;;;;;;;3.58;1.58;;;3.00;99.90;;;;;;2032585;29;20217;-69
2024/03/26 01:34:52;;;;;;;3.27;1.67;;;2.90;99.80;;;;;;2040356;29;20306;-69
2024/03/26 01:35:54;;;;;;;3.30;1.70;;;3.00;99.90;;;;;;2025488;29;20251;-69
2024/03/26 01:36:55;;;;;;;3.92;2.30;;;3.00;99.90;;;;;;2023570;29;20315;-69
2024/03/26 01:37:55;;;;;;;2.03;1.60;;;3.00;99.90;;;;;;2028962;29;20232;-69
2024/03/26 01:38:56;;;;;;;2.63;1.60;;;3.00;99.90;;;;;;2040899;29;20229;-69
2024/03/26 01:39:57;;;;;;;2.90;1.80;;;3.00;99.90;;;;;;2032414;29;20220;-69
2024/03/26 01:40:57;;;;;;;3.13;2.23;;;3.00;99.90;;;;;;2027141;29;20297;-69
2024/03/26 01:41:58;;;;;;;3.10;2.00;;;3.00;99.90;;;;;;2035669;29;20227;-69
2024/03/26 01:42:59;;;;;;;3.10;1.90;;;2.90;99.90;;;;;;2026660;29;20314;-69
2024/03/26 01:43:59;;;;;;;3.37;1.90;;;2.80;99.90;;;;;;2027162;29;20319;-69
2024/03/26 01:45:01;;;;;;;3.30;1.83;;;2.80;99.90;;;;;;2025828;29;20606;-69
2024/03/26 01:46:02;;;;;;;3.75;2.15;;;2.70;99.90;;;;;;2015002;29;20278;-69
2024/03/26 01:47:02;;;;;;;3.17;2.37;;;2.70;99.90;;;;;;2025200;29;20185;-69
2024/03/26 01:48:04;;;;;;;5.03;2.20;;;2.70;99.90;;;;;;2031650;29;20778;-69
2024/03/26 01:49:08;;;;;;;4.72;2.35;;;2.70;99.90;;;;;;2035059;29;20211;-69
2024/03/26 01:50:13;;;;;;;3.88;2.20;;;2.70;99.90;;;;;;2027410;29;20201;-69
2024/03/26 01:51:13;;;;;;;3.22;2.47;;;2.80;99.90;;;;;;2032876;29;20195;-69
2024/03/26 01:52:15;;;;;;;4.07;2.40;;;2.80;99.90;;;;;;2032059;29;20182;-69
2024/03/26 01:53:16;;;;;;;4.55;2.30;;;2.90;99.90;;;;;;2024472;29;20204;-69
2024/03/26 01:54:16;;;;;;;4.82;2.35;;;2.90;99.90;;;;;;2033274;29;20207;-69
2024/03/26 01:55:18;;;;;;;4.27;2.90;;;2.90;99.90;;;;;;2026213;29;20300;-69
2024/03/26 01:56:19;;;;;;;3.85;2.40;;;2.90;99.90;;;;;;2025320;29;20195;-69
2024/03/26 01:57:22;;;;;;;3.75;2.25;;;3.00;99.90;;;;;;2025062;29;20192;-69
2024/03/26 01:58:23;;;;;;;2.97;2.00;;;3.00;99.90;;;;;;2012359;29;20239;-69
2024/03/26 01:59:25;;;;;;;5.20;2.53;;;3.00;99.60;;;;;;2011052;29;20248;-69
2024/03/26 02:00:29;;;;;;;3.97;1.92;;;3.10;99.60;;;;;;2019151;29;20239;-69
2024/03/26 02:01:31;;;;;;;4.30;2.20;;;3.00;99.60;;;;;;2025146;29;20312;-69
2024/03/26 02:02:32;;;;;;;3.75;1.75;;;2.90;99.70;;;;;;2024926;29;20679;-69
2024/03/26 02:03:33;;;;;;;4.55;2.15;;;3.00;99.70;;;;;;2018176;29;20286;-69
2024/03/26 02:04:34;;;;;;;2.90;1.80;;;3.00;99.70;;;;;;2024333;29;20292;-69
2024/03/26 02:05:34;;;;;;;6.23;2.50;;;3.10;99.60;;;;;;2027270;29;20287;-69
2024/03/26 02:06:35;;;;;;;3.23;2.20;;;3.10;99.50;;;;;;2024262;29;20300;-69
2024/03/26 02:07:38;;;;;;;3.77;2.37;;;3.00;99.50;;;;;;2025939;29;20583;-69
2024/03/26 02:08:40;;;;;;;4.70;2.40;;;3.10;99.60;;;;;;2022578;29;20234;-69
2024/03/26 02:09:41;;;;;;;3.42;2.42;;;3.00;99.70;;;;;;2032753;29;20225;-69
2024/03/26 02:10:42;;;;;;;5.07;2.55;;;3.00;99.60;;;;;;2023024;29;20519;-69
2024/03/26 02:11:43;;;;;;;3.10;2.15;;;3.00;99.60;;;;;;2017667;29;20224;-69
2024/03/26 02:12:43;;;;;;;2.70;1.80;;;3.10;99.50;;;;;;2033212;29;20255;-71
2024/03/26 02:13:47;;;;;;;3.77;2.33;;;3.20;99.40;;;;;;2031573;29;20302;-69
2024/03/26 02:14:48;;;;;;;3.28;2.33;;;3.20;99.20;;;;;;2034817;29;20223;-69
2024/03/26 02:15:48;;;;;;;4.90;2.70;;;3.20;99.30;;;;;;2038549;29;20231;-69
2024/03/26 02:16:49;;;;;;;5.03;2.60;;;3.30;98.90;;;;;;2024817;29;20227;-69
2024/03/26 02:17:50;;;;;;;4.10;2.87;;;3.30;98.80;;;;;;2025102;29;20235;-69
2024/03/26 02:18:50;;;;;;;2.80;2.03;;;3.30;98.60;;;;;;2033146;29;20612;-69
2024/03/26 02:19:51;;;;;;;3.43;2.33;;;3.30;98.60;;;;;;2016065;29;20229;-69
2024/03/26 02:20:52;;;;;;;2.70;2.07;;;3.30;98.90;;;;;;2015578;29;20280;-69
2024/03/26 02:21:52;;;;;;;3.80;2.20;;;3.30;99.00;;;;;;2029685;29;20232;-69
2024/03/26 02:22:57;;;;;;;6.07;2.37;;;3.20;99.00;;;;;;2030376;29;20238;-69
2024/03/26 02:23:57;;;;;;;4.45;2.67;;;3.30;99.10;;;;;;2037929;29;20231;-69
2024/03/26 02:24:58;;;;;;;4.03;2.33;;;3.30;99.00;;;;;;2039266;29;20258;-69
2024/03/26 02:25:59;;;;;;;2.90;2.00;;;3.40;98.70;;;;;;2026310;29;20310;-69
2024/03/26 02:27:00;;;;;;;5.17;2.80;;;3.40;98.40;;;;;;2025983;29;20307;-69
2024/03/26 02:28:00;;;;;;;4.73;2.60;;;3.50;98.10;;;;;;2030077;29;20308;-69
2024/03/26 02:29:01;;;;;;;3.77;2.30;;;3.50;98.10;;;;;;2027800;29;20220;-69
2024/03/26 02:30:02;;;;;;;3.50;2.37;;;3.50;98.00;;;;;;2032476;29;20191;-69
2024/03/26 02:31:02;;;;;;;3.10;2.40;;;3.50;97.90;;;;;;2029074;29;20280;-69
2024/03/26 02:32:03;;;;;;;4.80;2.63;;;3.60;97.60;;;;;;2028702;29;20222;-69
2024/03/26 02:33:04;;;;;;;2.90;2.03;;;3.60;97.50;;;;;;2032158;29;20222;-69
2024/03/26 02:34:05;;;;;;;3.80;2.40;;;3.50;97.50;;;;;;2024824;29;20971;-69
2024/03/26 02:35:06;;;;;;;3.37;2.50;;;3.50;97.80;;;;;;2025212;29;20205;-69
2024/03/26 02:36:07;;;;;;;4.90;2.50;;;3.50;97.90;;;;;;2025687;29;20696;-69
2024/03/26 02:37:07;;;;;;;3.47;2.47;;;3.50;97.90;;;;;;2027894;29;20540;-69
2024/03/26 02:38:08;;;;;;;4.40;2.50;;;3.50;97.70;;;;;;2031580;29;20187;-69
2024/03/26 02:39:09;;;;;;;2.47;1.93;;;3.60;98.30;;;;;;2021877;29;20206;-69
2024/03/26 02:40:11;;;;;;;2.95;2.00;;;3.60;98.50;;;;;;2015906;29;20205;-69
2024/03/26 02:41:12;;;;;;;5.55;2.55;;;3.60;98.00;;;;;;2030114;29;20200;-69
2024/03/26 02:42:13;;;;;;;3.90;2.17;;;3.60;98.00;;;;;;2037909;29;20192;-69
2024/03/26 02:43:14;;;;;;;3.58;2.08;;;3.70;98.10;;;;;;2037620;29;20192;-68
2024/03/26 02:44:14;;;;;;;3.60;1.90;;;3.70;97.90;;;;;;2026447;29;20218;-69
2024/03/26 02:45:15;;;;;;;2.63;1.87;;;3.70;97.80;;;;;;2030748;29;20224;-69
2024/03/26 02:46:16;;;;;;;3.90;2.27;;;3.80;97.70;;;;;;2029090;29;20224;-69
2024/03/26 02:47:17;;;;;;;4.82;2.55;;;3.70;98.00;;;;;;2023437;29;20267;-71
2024/03/26 02:48:18;;;;;;;2.87;1.97;;;3.70;98.20;;;;;;2014912;29;20183;-71
2024/03/26 02:49:18;;;;;;;2.87;1.87;;;3.70;98.20;;;;;;2024590;29;20262;-69
2024/03/26 02:50:19;;;;;;;3.77;2.17;;;3.80;98.10;;;;;;2023166;29;20227;-71
2024/03/26 02:51:20;;;;;;;4.22;1.95;;;3.80;98.20;;;;;;2029467;29;20188;-69
2024/03/26 02:52:21;;;;;;;2.23;1.93;;;3.80;98.20;;;;;;2037301;29;21785;-70
2024/03/26 02:53:23;;;;;;;2.63;1.60;;;3.80;98.20;;;;;;2030962;29;20233;-71
2024/03/26 02:54:24;;;;;;;3.58;1.83;;;3.90;98.10;;;;;;2024678;29;20236;-69
2024/03/26 02:55:24;;;;;;;3.73;1.77;;;3.90;98.00;;;;;;2030848;29;20233;-71
2024/03/26 02:56:25;;;;;;;2.80;1.90;;;3.90;97.90;;;;;;2031718;29;20233;-70
2024/03/26 02:57:26;;;;;;;2.60;1.70;;;3.90;97.80;;;;;;2024698;29;20230;-69
2024/03/26 02:58:26;;;;;;;2.87;1.70;;;3.90;97.90;;;;;;2022932;29;20285;-70
2024/03/26 02:59:27;;;;;;;4.40;2.60;;;3.90;97.90;;;;;;2028999;29;20228;-70
2024/03/26 03:00:27;;;;;;;4.00;2.07;;;4.00;98.10;;;;;;2030135;29;20240;-68
2024/03/26 03:01:28;;;;;;;3.87;2.47;;;4.00;98.20;;;;;;2023528;29;20232;-68
2024/03/26 03:02:29;;;;;;;5.67;2.20;;;3.90;98.80;;;;;;2025388;29;20856;-68
2024/03/26 03:03:30;;;;;;;2.53;1.92;;;3.90;99.00;;;;;;2034107;29;20227;-68
2024/03/26 03:04:31;;;;;;;3.63;2.50;;;3.90;99.00;;;;;;2024266;29;20252;-68
2024/03/26 03:05:31;;;;;;;2.17;1.60;;;3.90;99.00;;;;;;2016819;29;20244;-68
2024/03/26 03:06:32;;;;;;;3.33;2.00;;;4.00;98.90;;;;;;2024441;29;20233;-68
2024/03/26 03:07:33;;;;;;;3.53;2.27;;;4.00;98.40;;;;;;2032502;29;20228;-68
2024/03/26 03:08:34;;;;;;;2.93;1.90;;;4.10;98.10;;;;;;2022651;29;20232;-68
2024/03/26 03:09:35;;;;;;;3.03;1.77;;;4.10;97.90;;;;;;2022150;29;20230;-68
2024/03/26 03:10:36;;;;;;;2.63;1.77;;;4.10;97.60;;;;;;2032947;29;20596;-69
2024/03/26 03:11:36;;;;;;;3.23;2.00;;;4.10;97.50;;;;;;2032930;29;20318;-68
2024/03/26 03:12:37;;;;;;;4.40;1.80;;;4.10;97.40;;;;;;2032644;29;20228;-68
2024/03/26 03:13:38;;;;;;;2.60;1.57;;;4.10;97.40;;;;;;2032568;29;20256;-68
2024/03/26 03:14:38;;;;;;;3.07;1.93;;;4.10;97.60;;;;;;2032045;29;20231;-68
2024/03/26 03:15:39;;;;;;;3.63;1.50;;;4.10;97.60;;;;;;2023567;29;20725;-68
2024/03/26 03:16:40;;;;;;;4.20;2.28;;;4.10;97.50;;;;;;2022496;29;20221;-69
2024/03/26 03:17:41;;;;;;;2.67;1.97;;;4.10;97.50;;;;;;2031697;29;20240;-68
2024/03/26 03:18:41;;;;;;;3.70;1.93;;;4.10;97.50;;;;;;2037214;29;20235;-68
2024/03/26 03:19:42;;;;;;;3.70;2.43;;;4.10;97.50;;;;;;2032796;29;20231;-69
2024/03/26 03:20:43;;;;;;;3.53;2.13;;;4.10;97.50;;;;;;2029651;29;20228;-69
2024/03/26 03:21:43;;;;;;;2.87;2.07;;;4.10;97.60;;;;;;2029266;29;20608;-68
2024/03/26 03:22:44;;;;;;;3.57;2.43;;;4.10;97.60;;;;;;2028333;29;20232;-68
2024/03/26 03:23:45;;;;;;;7.07;2.50;;;4.10;97.70;;;;;;2030365;29;20232;-68
2024/03/26 03:24:46;;;;;;;5.13;2.77;;;4.10;97.80;;;;;;2022041;29;20488;-68
2024/03/26 03:25:54;;;;;;;6.00;3.03;;;4.20;98.30;;;;;;2022302;29;20716;-68
2024/03/26 03:26:54;;;;;;;4.68;2.60;;;4.10;98.20;;;;;;2034108;29;20239;-68
2024/03/26 03:27:56;;;;;;;4.50;2.27;;;4.10;98.10;;;;;;2037084;29;20230;-68
2024/03/26 03:28:56;;;;;;;3.25;2.45;;;4.10;98.50;;;;;;2021724;29;20670;-68
2024/03/26 03:29:57;;;;;;;7.70;2.50;;;4.10;98.00;;;;;;2020850;29;20221;-68
2024/03/26 03:30:58;;;;;;;3.00;1.50;;;4.10;98.60;;;;;;2022044;29;20701;-68
2024/03/26 03:31:58;;;;;;;1.80;1.37;;;4.20;98.30;;;;;;2021830;29;20878;-68
2024/03/26 03:32:59;;;;;;;2.47;1.47;;;4.20;98.60;;;;;;2029189;29;20224;-68
2024/03/26 03:34:00;;;;;;;1.70;1.20;;;4.20;98.70;;;;;;2029641;29;20236;-68
2024/03/26 03:35:00;;;;;;;2.03;1.23;;;4.10;98.60;;;;;;2028944;29;20762;-68
2024/03/26 03:36:01;;;;;;;1.10;1.00;;;4.10;98.70;;;;;;2021446;29;20275;-66
2024/03/26 03:37:01;;;;;;;2.63;1.50;;;4.10;98.80;;;;;;2019990;29;20216;-67
2024/03/26 03:38:02;;;;;;;2.83;1.53;;;4.10;98.70;;;;;;2028094;29;20198;-67
2024/03/26 03:39:04;;;;;;;2.97;1.40;;;4.10;98.60;;;;;;2018883;29;20201;-68
2024/03/26 03:40:06;;;;;;;1.15;1.00;;;4.10;98.50;;;;;;2021614;29;20428;-68
2024/03/26 03:41:07;;;;;;;1.75;1.20;;;4.20;98.60;;;;;;2020886;29;20193;-68
2024/03/26 03:42:07;;;;;;;2.63;1.40;;;4.20;98.50;;;;;;2022566;29;20196;-68
2024/03/26 03:43:08;;;;;;;2.40;1.50;;;4.20;98.50;;;;;;2030581;29;20189;-68
2024/03/26 03:44:08;;;;;;;2.93;1.10;;;4.30;98.30;;;;;;2029985;29;20227;-68
2024/03/26 03:45:10;;;;;;;3.53;1.23;;;4.30;97.90;;;;;;2026029;29;20220;-68
2024/03/26 03:46:11;;;;;;;2.33;1.23;;;4.20;97.90;;;;;;2025052;29;20321;-68
2024/03/26 03:47:11;;;;;;;2.20;1.58;;;4.20;98.10;;;;;;2030217;29;20184;-68
2024/03/26 03:48:12;;;;;;;2.73;1.70;;;4.20;97.80;;;;;;2030088;29;20752;-69
2024/03/26 03:49:13;;;;;;;1.20;1.03;;;4.20;97.60;;;;;;2024972;29;20291;-68
2024/03/26 03:50:14;;;;;;;2.47;1.63;;;4.10;97.70;;;;;;2025128;29;20323;-68
2024/03/26 03:51:14;;;;;;;2.13;1.70;;;4.10;97.70;;;;;;2028767;29;20280;-68
2024/03/26 03:52:15;;;;;;;2.03;1.57;;;4.00;98.10;;;;;;2031235;29;20685;-68
2024/03/26 03:53:16;;;;;;;3.22;1.80;;;3.90;98.40;;;;;;2021428;29;20214;-69
2024/03/26 03:54:17;;;;;;;2.00;1.57;;;4.00;98.50;;;;;;2021779;29;20221;-69
2024/03/26 03:55:17;;;;;;;2.33;1.53;;;3.90;98.40;;;;;;2029441;29;20283;-68
2024/03/26 03:56:18;;;;;;;1.80;1.57;;;3.90;98.30;;;;;;2021367;29;20268;-68
2024/03/26 03:57:19;;;;;;;2.07;1.30;;;4.00;98.10;;;;;;2021899;29;20193;-69
2024/03/26 03:58:19;;;;;;;3.40;1.30;;;4.00;97.90;;;;;;2021324;29;20611;-68
2024/03/26 03:59:21;;;;;;;1.73;1.50;;;4.10;97.80;;;;;;2020741;29;20199;-69
2024/03/26 04:00:21;;;;;;;3.17;1.55;;;4.10;97.70;;;;;;2021618;29;20255;-69
2024/03/26 04:01:22;;;;;;;2.13;1.63;;;4.20;97.60;;;;;;2021016;29;20230;-69
2024/03/26 04:02:23;;;;;;;2.23;1.47;;;4.20;97.40;;;;;;2029400;29;20231;-69
2024/03/26 04:03:23;;;;;;;2.20;1.37;;;4.20;97.20;;;;;;2030178;29;20794;-69
2024/03/26 04:04:24;;;;;;;1.47;1.20;;;4.20;97.10;;;;;;2020963;29;20273;-68
2024/03/26 04:05:25;;;;;;;1.90;1.20;;;4.20;97.20;;;;;;2015275;29;20407;-69
2024/03/26 04:06:25;;;;;;;2.00;1.40;;;4.10;97.40;;;;;;2021559;29;20228;-69
2024/03/26 04:07:26;;;;;;;2.63;1.77;;;4.20;97.70;;;;;;2021402;29;20267;-69
2024/03/26 04:08:27;;;;;;;2.83;1.50;;;4.20;97.70;;;;;;2021799;29;20273;-69
2024/03/26 04:09:27;;;;;;;4.33;1.60;;;4.20;97.80;;;;;;2020633;29;20244;-69
2024/03/26 04:10:32;;;;;;;3.10;1.60;;;4.30;98.30;;;;;;2021537;29;20230;-69
2024/03/26 04:11:34;;;;;;;2.95;1.92;;;4.30;98.40;;;;;;2028954;29;20243;-69
2024/03/26 04:12:35;;;;;;;1.98;1.38;;;4.20;98.60;;;;;;2030793;29;20593;-68
2024/03/26 04:13:36;;;;;;;1.90;1.43;;;4.20;98.60;;;;;;2029839;29;20323;-69
2024/03/26 04:14:36;;;;;;;2.93;1.97;;;4.20;98.50;;;;;;2030355;29;20735;-68
2024/03/26 04:15:40;;;;;;;2.37;1.37;;;4.20;98.70;;;;;;2029626;29;20603;-69
2024/03/26 04:16:43;;;;;;;2.10;1.48;;;4.20;98.60;;;;;;2017470;29;20615;-68
2024/03/26 04:17:43;;;;;;;2.95;1.33;;;4.30;98.60;;;;;;2018922;29;20308;-68
2024/03/26 04:18:45;;;;;;;3.27;1.30;;;4.30;98.30;;;;;;2031424;29;20736;-69
2024/03/26 04:19:46;;;;;;;1.60;1.30;;;4.30;98.30;;;;;;2020786;29;20235;-68
2024/03/26 04:20:47;;;;;;;2.33;1.40;;;4.30;98.10;;;;;;2022849;29;20233;-69
2024/03/26 04:21:47;;;;;;;2.13;1.30;;;4.20;98.20;;;;;;2030140;29;20232;-69
2024/03/26 04:22:48;;;;;;;1.50;1.07;;;4.30;98.00;;;;;;2021409;29;20228;-68
2024/03/26 04:23:49;;;;;;;1.20;1.07;;;4.40;97.80;;;;;;2022155;29;20282;-68
2024/03/26 04:24:50;;;;;;;1.67;1.30;;;4.30;97.40;;;;;;2028720;29;20506;-68
2024/03/26 04:25:57;;;;;;;1.67;1.27;;;4.30;97.30;;;;;;2014500;29;20226;-68
2024/03/26 04:26:58;;;;;;;3.55;1.63;;;4.40;97.10;;;;;;2008841;29;20285;-68
2024/03/26 04:27:58;;;;;;;2.63;1.30;;;4.30;96.90;;;;;;2014184;29;20280;-69
2024/03/26 04:28:59;;;;;;;1.10;0.93;;;4.40;96.80;;;;;;2014494;29;20235;-70
2024/03/26 04:30:00;;;;;;;1.77;1.37;;;4.40;96.70;;;;;;2028838;29;20227;-69
2024/03/26 04:31:00;;;;;;;1.40;1.20;;;4.40;96.70;;;;;;2028193;29;20244;-68
2024/03/26 04:32:01;;;;;;;2.87;1.10;;;4.40;96.70;;;;;;2016657;29;20301;-68
2024/03/26 04:33:02;;;;;;;2.57;1.40;;;4.40;96.70;;;;;;2030010;29;20575;-68
2024/03/26 04:34:03;;;;;;;3.47;1.50;;;4.50;96.70;;;;;;2022124;29;20217;-69
2024/03/26 04:35:04;;;;;;;1.33;1.10;;;4.40;96.60;;;;;;2021043;29;20189;-69
2024/03/26 04:36:06;;;;;;;2.40;1.58;;;4.40;96.40;;;;;;2021029;29;20189;-70
2024/03/26 04:37:06;;;;;;;2.35;1.60;;;4.50;96.80;;;;;;2037240;29;20233;-69
2024/03/26 04:38:07;;;;;;;1.20;1.10;;;4.40;96.90;;;;;;2028951;29;20559;-69
2024/03/26 04:39:09;;;;;;;1.50;1.07;;;4.40;96.80;;;;;;2022514;29;20305;-69
2024/03/26 04:40:10;;;;;;;2.35;1.90;;;4.40;96.80;;;;;;2021758;29;20197;-69
2024/03/26 04:41:12;;;;;;;5.55;4.50;;;4.50;96.80;;;;;;2029021;29;20613;-69
2024/03/26 04:42:12;;;;;;;7.43;6.00;;;4.40;96.80;;;;;;2036855;29;20214;-69
2024/03/26 04:43:13;;;;;;;4.63;4.13;;;4.30;96.70;;;;;;2029343;29;20223;-69
2024/03/26 04:44:14;;;;;;;4.40;3.13;;;4.30;96.90;;;;;;2037711;29;20323;-70
2024/03/26 04:45:14;;;;;;;3.10;2.00;;;4.30;96.90;;;;;;2038424;29;20426;-70
2024/03/26 04:46:15;;;;;;;3.50;2.30;;;4.30;96.80;;;;;;2028698;29;20693;-70
2024/03/26 04:47:16;;;;;;;2.43;1.90;;;4.30;97.00;;;;;;2025290;29;20276;-70
2024/03/26 04:48:16;;;;;;;2.60;1.87;;;4.20;96.90;;;;;;2024998;29;20221;-71
2024/03/26 04:49:17;;;;;;;2.10;1.67;;;4.20;97.20;;;;;;2028115;29;20182;-69
2024/03/26 04:50:18;;;;;;;2.13;1.60;;;4.20;97.40;;;;;;2029269;29;20184;-70
2024/03/26 04:51:18;;;;;;;2.17;1.90;;;4.10;97.40;;;;;;2037223;29;20602;-70
2024/03/26 04:52:19;;;;;;;2.03;1.80;;;4.20;97.90;;;;;;2029650;29;20226;-71
2024/03/26 04:53:20;;;;;;;4.00;2.80;;;4.20;98.20;;;;;;2030557;29;20181;-69
2024/03/26 04:54:20;;;;;;;8.67;4.33;;;4.10;98.30;;;;;;2029307;29;20602;-69
2024/03/26 04:55:21;;;;;;;9.60;5.80;;;4.10;98.30;;;;;;2021675;29;20243;-69
2024/03/26 04:56:22;;;;;;;12.43;5.97;;;4.10;98.40;;;;;;2028780;29;20236;-69
2024/03/26 04:57:22;;;;;;;9.43;5.67;;;4.10;98.70;;;;;;2030299;29;20223;-69
2024/03/26 04:58:23;;;;;;;5.33;3.80;;;4.10;98.70;;;;;;2029615;29;20239;-69
2024/03/26 04:59:24;;;;;;;8.07;4.67;;;4.00;99.00;;;;;;2020964;29;20237;-69
2024/03/26 05:00:24;;;;;;;9.03;5.90;;;3.90;99.40;;;;;;2021501;29;20235;-69
2024/03/26 05:01:25;;;;;;;9.00;6.33;;;3.80;99.60;;;;;;2036260;29;20235;-69
2024/03/26 05:02:26;;;;;;;11.97;8.27;;;3.80;99.70;;;;;;2036979;29;20235;-69
2024/03/26 05:03:26;;;;;;;16.97;12.13;;;3.80;99.70;;;;;;2037488;29;20227;-69
2024/03/26 05:04:27;;;;;;;18.50;13.77;;;3.90;99.50;;;;;;2036675;29;20248;-69
2024/03/26 05:05:28;;;;;;;21.93;15.57;;;4.00;99.20;;;;;;2036740;29;20283;-69
2024/03/26 05:06:28;;;;;;;20.73;15.70;;;4.00;99.20;;;;;;2036565;29;20231;-70
2024/03/26 05:07:29;;;;;;;17.50;10.73;;;4.10;99.10;;;;;;2036670;29;20240;-69
2024/03/26 05:08:30;;;;;;;14.23;9.77;;;4.20;99.10;;;;;;2036977;29;20230;-69
2024/03/26 05:09:31;;;;;;;10.47;7.63;;;4.20;99.10;;;;;;2037403;29;20235;-69
2024/03/26 05:10:31;;;;;;;8.70;5.20;;;4.20;99.00;;;;;;2028878;29;20229;-69
2024/03/26 05:11:32;;;;;;;7.27;5.47;;;4.20;98.80;;;;;;2017162;29;20229;-69
2024/03/26 05:12:33;;;;;;;8.47;4.93;;;4.30;98.90;;;;;;2029589;29;20243;-70
2024/03/26 05:13:33;;;;;;;7.10;4.40;;;4.30;98.80;;;;;;2030669;29;20227;-70
2024/03/26 05:14:34;;;;;;;4.90;3.07;;;4.30;98.70;;;;;;2030896;29;20759;-69
2024/03/26 05:15:35;;;;;;;5.23;2.10;;;4.40;98.40;;;;;;2030010;29;20235;-69
2024/03/26 05:16:36;;;;;;;3.83;2.47;;;4.50;98.20;;;;;;2028962;29;20232;-70
2024/03/26 05:17:36;;;;;;;5.93;3.80;;;4.40;98.00;;;;;;2021649;29;20262;-69
2024/03/26 05:18:38;;;;;;;7.03;4.10;;;4.50;97.80;;;;;;2021241;29;20315;-69
2024/03/26 05:19:39;;;;;;;5.68;3.90;;;4.40;97.70;;;;;;2036997;29;20220;-69
2024/03/26 05:20:39;;;;;;;4.63;3.63;;;4.40;97.60;;;;;;2036789;29;20228;-69